Main page
METAR-TAF:

METAR-TAF

Airports :

Wattisham, England

RAF Wattisham

latitude: 52-07N, longitude: 000-58E, elevation: 87 m

Current weather observation

The report was made 45 minutes ago, at 01:50 UTC
Wind 5 kt from the Southeast
Temperature 13°C
Humidity 88%
Pressure 1011 hPa
Visibility 10 km or more

METAR: EGUW 260150Z AUTO 14005KT 9999 FEW011/// 13/11 Q1011

Time: 03:35 (02:35 UTC)

Forecast

The report was made 7 hours and 0 minutes ago, at 19:35 UTC
Forecast valid from 25 at 21 UTC to 26 at 01 UTC
Wind 5 kt from the Northeast
Visibility 10 km or more
no clouds below 1500 m and no cumulonimbus

TAF: EGUW 251935Z 2521/2601 05005KT CAVOK

Weather observations and forecasts of more than 4000 airports (METAR and TAF reports).

The available stations are represented by yellow and red dots on the map.

Hover mouse over dot to see the name of the station.

Then click to see weather observations and forecasts.

To change the map : click on the green buttons with a black cross to zoom in, on the green button with a dash to zoom out, or on the green arrows for adjacent maps.


METAR-TAF: